Terminal Aerodrome Forecast
Issued by NWS Billings, MT

Home | Current Version | Previous Version | Text Only | Print | Product List | Glossary On
Versions: 1 2 3 4 5 6 7 8 9 10 11 12 13 14 15 16 17 18 19 20 21 22 23
465
FTUS45 KBYZ 231120
TAFMLS
TAF
KMLS 231120Z 2312/2412 32011KT P6SM SCT200 WS015/32030KT
     FM231400 32014G23KT P6SM SKC
     FM231800 29014G20KT P6SM SKC
     FM240400 28009KT P6SM FEW060 SCT120=

USA.gov is the U.S. government's official web portal to all federal, state and local government web resources and services.